Impacts TAF Board INFO
FOR SITUATIONAL AWARENESS. NOT TO BE USED FOR FLIGHT PLANNING PURPOSES.
IDs:

KMDW - Chicago/Midway Intl, IL, US

Issued at 0530 UTC 19 Nov 2017
Updated at 0848 UTC 19 Nov 2017
Potential Impact None Slight Moderate High
Time0753Z 19/09Z 19/10Z 19/11Z 19/12Z 19/13Z 19/14Z 19/15Z 19/16Z 19/17Z 19/18Z 19/19Z 19/20Z 19/21Z>>
Type OBS PRVL PRVL PRVL PRVL PRVL PRVL PRVL PRVL PRVL PRVL PRVL PRVL PRVL
VIS 10 >6 >6 >6 >6 >6 >6 >6 >6 >6 >6 >6 >6 >6
CIG 30 30 30 30 30 30 30 -- -- -- -- -- -- --
Cover OVC OVC OVC OVC OVC OVC OVC SCT SCT SCT SCT SCT SCT SCT
FltCat MVFR MVFR MVFR MVFR MVFR MVFR MVFR VFR VFR VFR VFR VFR VFR VFR
WX -- -- -- -- -- -- -- -- -- -- -- -- -- --
WDir 310 310 310 310 310 310 310 290 290 290 290 290 290 290
WSpd 15 12 12 12 12 12 12 12 12 12 12 12 12 12
WGst 20 18 18 18 18 18 18 18 18 18 18 18 18 18

Raw TAF
KMDW 190530Z 1906/2006 31012G18KT P6SM OVC030
  FM191500 29012G18KT P6SM SCT200
  FM192300 25008KT P6SM SCT200


Raw METAR
KMDW 190753Z 31015G20KT 10SM OVC030 02/M03 A2988 RMK AO2 SLP129 T00221033
KMDW 190653Z 31012KT 10SM OVC029 03/M03 A2986 RMK AO2 SLP119 T00331028
KMDW 190553Z 30012G17KT 10SM OVC028 03/M01 A2985 RMK AO2 SLP116 T00331011 10044 20033 400890022 51028

METAR Board
Radar Display
Forecast Discussion

FOR SITUATIONAL AWARENESS. NOT TO BE USED FOR FLIGHT PLANNING PURPOSES.